Hauptseite
METAR-TAF:

METAR-TAF

Flughäfen :

Heeresflugplatz Altenstadt

Altenstadt, Deutschland

Breite: 47-50N, Länge: 010-52E, Höhe: 739 m

Beobachtung

Neuester Wetterbericht von vor 43 Minuten, um 13:20 UTC
Wind 6 kt aus West
Temperatur 9°C
Luftfeuchtigkeit 61%
Luftdruck 1022 hPa
Sichtweite 10 km oder mehr
Leicht bewölkt in der Höhe von 30000 ft

METAR: ETHA 241320Z 27006KT 9999 FEW300 09/02 Q1022 BLACKBLU+

Zeit: 15:03 (14:03 UTC)

Prognose

Neuester Wetterbericht von vor 3 Stunden und 44 Minuten, um 10:19 UTC
Gültige Prognose vom 24 um 09 UTC bis 24 um 18 UTC
Wind 5 kt aus Südwest
Sichtweite: 1120 m
Leicht bewölkt in der Höhe von 25000 ft

TAF: ETHA 241019Z 2409/2418 23005KT 9999 NSW FEW250 CANCEL 1120

Wetterbeobachtungen und Prognosen von mehr als 4000 Flughäfen (METAR und TAF Bericht).

Die verfügbaren Stationen werden durch gelbe und rote Markierungen auf der Karte dargestellt.

Führen Sie die Maus auf sie, um den Namen der Station zu sehen.

Darauf klicken, um die Beobachtung von Wetterbeobachtungen und Prognosen zu sehen.

Um die Karte zu ändern : klicken Sie auf den grünen Tasten mit einem schwarzen Kreuz Zum Vergrößern, auf den grünen Button mit einem Gedankenstrich zu verkleinern, oder auf die grünen Pfeile für benachbarte Karten.


METAR-TAF: